Oklahoma — C6VR8 — position and weather

sailwx.info

Track history (hours):
 
Tides and Currents Weather Stations Pressure Air Temp Water Temp Dewpoint Dewpoint Depression Visibility Wind Speed Wind Dir Waves Ship Positions

Oklahoma

Last reported at 2018-Feb-24 15:02 UTC. Time now 2018-Feb-26 01:55 UTC.
Position N 38°02' W 122°07'.

Length 238 m; draft 11.5 m.

Type: Tanker. MMSI: 308664000.

Date/timePositionNaut miles runAvg speedWind from/ knotsBaromVisibWave heightAir tempDewpointWater temp
2018-Feb-24 15:02N 38°02' W 122°07'0 0.0
2018-Feb-24 14:59N 38°02' W 122°07'0 0.1
2018-Feb-24 14:29N 38°02' W 122°07'1 2.0
2018-Feb-24 14:00N 38°02' W 122°09'4 7.9
2018-Feb-24 13:29N 38°04' W 122°13'5 9.9
2018-Feb-24 13:00N 38°03' W 122°19'510.8
2018-Feb-24 12:30N 38°00' W 122°25'611.1
2018-Feb-24 12:00N 37°55' W 122°27'510.6
2018-Feb-24 11:30N 37°50' W 122°24'4 8.6
2018-Feb-24 11:00N 37°46' W 122°21'2 4.5
2018-Feb-24 10:29N 37°44' W 122°20'0 0.1
2018-Feb-24 09:59N 37°44' W 122°20'0 0.0
2018-Feb-24 09:29N 37°44' W 122°20'0 0.3
2018-Feb-24 08:59N 37°44' W 122°20'0 0.2
2018-Feb-24 08:29N 37°44' W 122°20'0 0.1
2018-Feb-24 07:59N 37°44' W 122°20'0 0.0
2018-Feb-24 07:29N 37°44' W 122°20'0 0.0
2018-Feb-24 06:59N 37°44' W 122°20'0 0.0
2018-Feb-24 06:29N 37°44' W 122°20'0 0.0
2018-Feb-24 05:59N 37°44' W 122°20'0 0.0
2018-Feb-24 05:29N 37°44' W 122°20'0 0.0
2018-Feb-24 04:59N 37°44' W 122°20'0 0.1
2018-Feb-24 04:29N 37°44' W 122°20'0 0.2
2018-Feb-24 03:59N 37°44' W 122°20'0 0.2
2018-Feb-24 03:29N 37°44' W 122°20'0 0.0
2018-Feb-24 02:59N 37°44' W 122°20'0 0.0
2018-Feb-24 02:29N 37°44' W 122°20'0 0.0
2018-Feb-24 01:59N 37°44' W 122°20'0 0.1
2018-Feb-24 01:29N 37°44' W 122°20'0 0.0
2018-Feb-24 00:59N 37°44' W 122°20'0 0.0
2018-Feb-24 00:29N 37°44' W 122°20'0 0.0
2018-Feb-23 23:59N 37°44' W 122°20'0 0.0
2018-Feb-23 23:29N 37°44' W 122°20'0 0.0
2018-Feb-23 22:59N 37°44' W 122°20'0 0.0
2018-Feb-23 22:29N 37°44' W 122°20'0 0.1
2018-Feb-23 21:59N 37°44' W 122°20'0 0.1
2018-Feb-23 21:29N 37°44' W 122°20'0 0.2
2018-Feb-23 20:59N 37°44' W 122°20'0 0.3
2018-Feb-23 20:29N 37°44' W 122°20'0 0.1
2018-Feb-23 19:59N 37°44' W 122°20'0 0.0
2018-Feb-23 19:29N 37°44' W 122°20'0 0.0
2018-Feb-23 18:59N 37°44' W 122°20'0 0.0
2018-Feb-23 18:29N 37°44' W 122°20'0 0.0
2018-Feb-23 17:59N 37°44' W 122°20'0 0.0
2018-Feb-23 17:29N 37°44' W 122°20'0 0.0
2018-Feb-23 16:59N 37°44' W 122°20'0 0.0
2018-Feb-23 16:29N 37°44' W 122°20'0 0.0
2018-Feb-23 15:59N 37°44' W 122°20'0 0.0
2018-Feb-23 15:29N 37°44' W 122°20'0 0.1
2018-Feb-23 14:59N 37°44' W 122°20'0 0.3
2018-Feb-23 14:29N 37°44' W 122°20'0 0.2
2018-Feb-23 13:59N 37°44' W 122°20'0 0.2
2018-Feb-23 13:29N 37°44' W 122°20'0 0.0
2018-Feb-23 12:59N 37°44' W 122°20'0 0.0
2018-Feb-23 12:29N 37°44' W 122°20'0 0.0
2018-Feb-23 11:59N 37°44' W 122°20'0 0.0
2018-Feb-23 11:29N 37°44' W 122°20'0 0.0
2018-Feb-23 10:59N 37°44' W 122°20'0 0.0
2018-Feb-23 10:29N 37°44' W 122°20'0 0.0
2018-Feb-23 09:59N 37°44' W 122°20'0 0.0
2018-Feb-23 09:29N 37°44' W 122°20'0 0.0
2018-Feb-23 08:59N 37°44' W 122°20'0 0.0
2018-Feb-23 08:29N 37°44' W 122°20'0 0.0
2018-Feb-23 07:59N 37°44' W 122°20'0 0.4
2018-Feb-23 07:29N 37°44' W 122°20'0 0.2
2018-Feb-23 06:59N 37°44' W 122°20'0 0.0
2018-Feb-23 06:29N 37°44' W 122°20'0 0.1
2018-Feb-23 05:59N 37°44' W 122°20'0 0.0
2018-Feb-23 05:29N 37°44' W 122°20'0 0.0
2018-Feb-23 04:59N 37°44' W 122°20'0 0.0
2018-Feb-23 04:29N 37°44' W 122°20'0 0.1
2018-Feb-23 03:59N 37°44' W 122°20'0 0.3
2018-Feb-23 03:29N 37°44' W 122°20'0 0.1
2018-Feb-23 02:59N 37°44' W 122°20'0 0.1
2018-Feb-23 02:29N 37°44' W 122°20'0 0.0
2018-Feb-23 01:59N 37°44' W 122°20'0 0.0
2018-Feb-23 01:29N 37°44' W 122°20'0 0.0
2018-Feb-23 00:59N 37°44' W 122°20'0 0.1
2018-Feb-23 00:29N 37°44' W 122°20'0 0.0
2018-Feb-22 23:59N 37°44' W 122°20'0 0.0
2018-Feb-22 23:29N 37°44' W 122°20'0 0.0
2018-Feb-22 22:59N 37°44' W 122°20'0 0.0
2018-Feb-22 22:29N 37°44' W 122°20'0 0.0
2018-Feb-22 21:59N 37°44' W 122°20'0 0.0
2018-Feb-22 21:29N 37°44' W 122°20'0 0.0
2018-Feb-22 20:59N 37°44' W 122°20'0 0.0
2018-Feb-22 20:29N 37°44' W 122°20'0 0.1
2018-Feb-22 19:59N 37°44' W 122°20'0 0.3
2018-Feb-22 19:29N 37°44' W 122°20'0 0.3
2018-Feb-22 18:59N 37°44' W 122°20'0 0.0
2018-Feb-22 18:29N 37°44' W 122°20'0 0.0
2018-Feb-22 17:59N 37°44' W 122°20'0 0.1
2018-Feb-22 17:29N 37°44' W 122°20'0 0.0
2018-Feb-22 16:59N 37°44' W 122°20'0 0.0
2018-Feb-22 16:29N 37°44' W 122°20'0 0.0
2018-Feb-22 15:59N 37°44' W 122°20'0 0.0
2018-Feb-22 15:26N 37°44' W 122°20'0 0.0
2018-Feb-22 14:59N 37°44' W 122°20'0 0.1
2018-Feb-22 14:29N 37°44' W 122°20'0 0.0
2018-Feb-22 13:59N 37°44' W 122°20'0 0.3
2018-Feb-22 13:29N 37°44' W 122°20'0 0.3
2018-Feb-22 12:59N 37°44' W 122°20'0 0.1
2018-Feb-22 12:29N 37°44' W 122°20'0 0.0
2018-Feb-22 11:59N 37°44' W 122°20'0 0.0
2018-Feb-22 11:29N 37°44' W 122°20'0 0.0
2018-Feb-22 10:59N 37°44' W 122°20'0 0.0
2018-Feb-22 10:29N 37°44' W 122°20'0 0.0
2018-Feb-22 09:59N 37°44' W 122°20'0 0.0
2018-Feb-22 09:29N 37°44' W 122°20'0 0.0
2018-Feb-22 08:59N 37°44' W 122°20'0 0.0
2018-Feb-22 08:29N 37°44' W 122°20'0 0.0
2018-Feb-22 07:59N 37°44' W 122°20'0 0.1
2018-Feb-22 07:29N 37°44' W 122°20'0 0.0
2018-Feb-22 06:59N 37°44' W 122°20'0 0.2
2018-Feb-22 06:29N 37°44' W 122°20'0 0.3
2018-Feb-22 05:59N 37°44' W 122°20'0 0.1
2018-Feb-22 05:29N 37°44' W 122°20'0 0.0
2018-Feb-22 04:59N 37°44' W 122°20'0 0.0
2018-Feb-22 04:29N 37°44' W 122°20'0 0.0
2018-Feb-22 03:59N 37°44' W 122°20'0 0.0
2018-Feb-22 03:29N 37°44' W 122°20'0 0.0
2018-Feb-22 02:59N 37°44' W 122°20'0 0.0
2018-Feb-22 02:29N 37°44' W 122°20'0 0.0
2018-Feb-22 01:59N 37°44' W 122°20'0 0.2
2018-Feb-22 01:29N 37°44' W 122°20'0 0.3
2018-Feb-22 00:59N 37°44' W 122°20'0 0.1
2018-Feb-22 00:29N 37°44' W 122°20'0 0.0
2018-Feb-21 23:59N 37°44' W 122°20'0 0.0
2018-Feb-21 23:29N 37°44' W 122°20'0 0.1
2018-Feb-21 22:59N 37°44' W 122°20'0 0.0
2018-Feb-21 22:29N 37°44' W 122°20'0 0.0
2018-Feb-21 21:59N 37°44' W 122°20'0 0.0
2018-Feb-21 21:29N 37°44' W 122°20'0 0.0
2018-Feb-21 20:59N 37°44' W 122°20'0 0.0
2018-Feb-21 20:29N 37°44' W 122°20'0 0.0
2018-Feb-21 19:59N 37°44' W 122°20'0 0.0
2018-Feb-21 19:29N 37°44' W 122°20'0 0.2
2018-Feb-21 18:59N 37°44' W 122°20'0 0.4
2018-Feb-21 18:29N 37°44' W 122°20'0 0.1
2018-Feb-21 17:59N 37°44' W 122°20'0 0.0
2018-Feb-21 17:29N 37°44' W 122°20'0 0.0
2018-Feb-21 16:59N 37°44' W 122°20'0 0.0
2018-Feb-21 16:29N 37°44' W 122°20'0 0.0
2018-Feb-21 15:59N 37°44' W 122°20'0 0.0
2018-Feb-21 15:29N 37°44' W 122°20'0 0.0
2018-Feb-21 14:59N 37°44' W 122°20'0 0.0
2018-Feb-21 14:29N 37°44' W 122°20'0 0.0
2018-Feb-21 13:59N 37°44' W 122°20'0 0.1
2018-Feb-21 13:29N 37°44' W 122°20'0 0.0
2018-Feb-21 12:59N 37°44' W 122°20'0 0.1
2018-Feb-21 12:29N 37°44' W 122°21'0 0.4
2018-Feb-21 11:59N 37°44' W 122°20'0 0.1
2018-Feb-21 11:29N 37°44' W 122°20'0 0.1
2018-Feb-21 10:59N 37°44' W 122°20'0 0.0
2018-Feb-21 10:29N 37°44' W 122°20'0 0.0
2018-Feb-21 09:59N 37°44' W 122°20'0 0.0
2018-Feb-21 09:29N 37°44' W 122°20'0 0.0
2018-Feb-21 08:59N 37°44' W 122°20'0 0.0
2018-Feb-21 08:29N 37°44' W 122°20'0 0.1
2018-Feb-21 07:59N 37°44' W 122°20'0 0.0
2018-Feb-21 07:29N 37°44' W 122°20'0 0.0
2018-Feb-21 06:59N 37°44' W 122°20'0 0.0
2018-Feb-21 06:29N 37°44' W 122°20'0 0.1
2018-Feb-21 05:56N 37°44' W 122°20'0 0.3
2018-Feb-21 05:29N 37°44' W 122°20'0 0.2
2018-Feb-21 04:59N 37°44' W 122°20'0 0.0
2018-Feb-21 04:29N 37°44' W 122°20'0 0.1
2018-Feb-21 03:59N 37°44' W 122°20'0 0.0
2018-Feb-21 03:29N 37°44' W 122°20'0 0.0
2018-Feb-21 02:59N 37°44' W 122°20'0 0.0
2018-Feb-21 02:29N 37°44' W 122°20'0 0.0
2018-Feb-21 01:59N 37°44' W 122°20'0 0.0
2018-Feb-21 01:29N 37°44' W 122°20'0 0.1
2018-Feb-21 00:59N 37°44' W 122°20'0 0.0
2018-Feb-21 00:29N 37°44' W 122°20'0 0.3
2018-Feb-20 23:59N 37°44' W 122°20'0 0.3
2018-Feb-20 23:29N 37°44' W 122°20'0 0.1
2018-Feb-20 22:59N 37°44' W 122°20'0 0.0
2018-Feb-20 22:29N 37°44' W 122°20'0 0.0
2018-Feb-20 21:59N 37°44' W 122°20'0 0.0
2018-Feb-20 21:29N 37°44' W 122°20'0 0.0
2018-Feb-20 20:59N 37°44' W 122°20'0 0.0
2018-Feb-20 20:29N 37°44' W 122°20'0 0.0
2018-Feb-20 19:59N 37°44' W 122°20'0 0.0
2018-Feb-20 19:29N 37°44' W 122°20'0 0.1
2018-Feb-20 18:59N 37°44' W 122°20'0 0.1
2018-Feb-20 18:29N 37°44' W 122°20'0 0.3
2018-Feb-20 17:59N 37°44' W 122°20'0 0.3
2018-Feb-20 17:29N 37°44' W 122°20'0 0.1
2018-Feb-20 16:59N 37°44' W 122°20'0 0.0
2018-Feb-20 16:29N 37°44' W 122°20'0 0.0
2018-Feb-20 15:59N 37°44' W 122°20'0 0.0
2018-Feb-20 15:29N 37°44' W 122°20'0 0.0
2018-Feb-20 14:59N 37°44' W 122°20'0 0.0
2018-Feb-20 14:29N 37°44' W 122°20'0 0.0
2018-Feb-20 13:59N 37°44' W 122°20'0 0.0
2018-Feb-20 13:29N 37°44' W 122°20'0 0.0
2018-Feb-20 12:59N 37°44' W 122°20'0 0.0
2018-Feb-20 12:29N 37°44' W 122°20'0 0.3
2018-Feb-20 11:59N 37°44' W 122°20'0 0.3
2018-Feb-20 11:29N 37°44' W 122°20'0 0.0
2018-Feb-20 10:59N 37°44' W 122°20'0 0.1
2018-Feb-20 10:29N 37°44' W 122°20'0 0.0
2018-Feb-20 09:59N 37°44' W 122°20'0 0.0
2018-Feb-20 09:29N 37°44' W 122°20'0 0.0
2018-Feb-20 08:59N 37°44' W 122°20'0 0.1
2018-Feb-20 08:29N 37°44' W 122°20'0 0.0
2018-Feb-20 07:59N 37°44' W 122°20'0 0.1
2018-Feb-20 07:29N 37°44' W 122°20'0 0.0
2018-Feb-20 06:59N 37°44' W 122°20'0 0.0
2018-Feb-20 06:29N 37°44' W 122°20'0 0.0
2018-Feb-20 05:59N 37°44' W 122°20'0 0.0
2018-Feb-20 05:29N 37°44' W 122°20'0 0.2
2018-Feb-20 04:59N 37°44' W 122°20'0 0.4
2018-Feb-20 04:29N 37°44' W 122°20'0 0.1
2018-Feb-20 03:59N 37°44' W 122°20'0 0.1
2018-Feb-20 03:29N 37°44' W 122°20'0 0.1
2018-Feb-20 02:59N 37°44' W 122°20'0 0.0
2018-Feb-20 02:29N 37°44' W 122°20'0 0.1
2018-Feb-20 01:59N 37°44' W 122°20'0 0.0
2018-Feb-20 01:29N 37°44' W 122°20'0 0.0
2018-Feb-20 00:59N 37°44' W 122°20'0 0.1
2018-Feb-20 00:29N 37°44' W 122°20'0 0.0
2018-Feb-19 23:59N 37°44' W 122°20'0 0.4
2018-Feb-19 23:29N 37°44' W 122°20'0 0.3
2018-Feb-19 22:59N 37°44' W 122°20'0 0.1
2018-Feb-19 22:29N 37°44' W 122°20'0 0.1
2018-Feb-19 21:59N 37°44' W 122°20'0 0.1
2018-Feb-19 21:29N 37°44' W 122°20'0 0.0
2018-Feb-19 20:59N 37°44' W 122°20'0 0.0
2018-Feb-19 20:29N 37°44' W 122°20'0 0.0
2018-Feb-19 19:59N 37°44' W 122°20'0 0.0
2018-Feb-19 19:29N 37°44' W 122°20'0 0.0
2018-Feb-19 18:59N 37°44' W 122°20'0 0.0
2018-Feb-19 18:29N 37°44' W 122°20'0 0.0
2018-Feb-19 17:59N 37°44' W 122°20'0 0.0
2018-Feb-19 17:29N 37°44' W 122°20'0 0.0
2018-Feb-19 16:59N 37°44' W 122°20'0 0.3
2018-Feb-19 16:29N 37°44' W 122°20'0 0.2
2018-Feb-19 15:59N 37°44' W 122°20'0 0.0
2018-Feb-19 15:29N 37°44' W 122°20'0 0.0
2018-Feb-19 14:59N 37°44' W 122°20'0 0.1
2018-Feb-19 14:29N 37°44' W 122°20'0 0.0
2018-Feb-19 13:59N 37°44' W 122°20'0 0.0
2018-Feb-19 13:29N 37°44' W 122°20'0 0.0
2018-Feb-19 12:59N 37°44' W 122°20'0 0.1
2018-Feb-19 12:29N 37°44' W 122°20'0 0.1
2018-Feb-19 11:59N 37°44' W 122°20'0 0.2
2018-Feb-19 11:29N 37°44' W 122°20'0 0.2
2018-Feb-19 10:59N 37°44' W 122°20'0 0.1
2018-Feb-19 10:29N 37°44' W 122°20'0 0.1
2018-Feb-19 09:59N 37°44' W 122°20'0 0.0
2018-Feb-19 09:29N 37°44' W 122°20'0 0.0
2018-Feb-19 08:59N 37°44' W 122°20'0 0.0
2018-Feb-19 08:29N 37°44' W 122°20'0 0.0
2018-Feb-19 07:59N 37°44' W 122°20'0 0.0
2018-Feb-19 07:29N 37°44' W 122°20'0 0.0
2018-Feb-19 06:59N 37°44' W 122°20'0 0.0
2018-Feb-19 06:29N 37°44' W 122°20'0 0.0
2018-Feb-19 05:59N 37°44' W 122°20'0 0.0
2018-Feb-19 05:29N 37°44' W 122°20'0 0.0
2018-Feb-19 04:59N 37°44' W 122°20'0 0.1
2018-Feb-19 04:29N 37°44' W 122°20'0 0.3
2018-Feb-19 03:59N 37°44' W 122°20'0 0.1
2018-Feb-19 03:29N 37°44' W 122°20'0 0.1
2018-Feb-19 02:59N 37°44' W 122°20'0 0.0
2018-Feb-19 02:29N 37°44' W 122°20'0 0.0
2018-Feb-19 01:59N 37°44' W 122°20'0 0.0
2018-Feb-19 01:29N 37°44' W 122°20'0 0.1
2018-Feb-19 00:59N 37°44' W 122°20'0 0.1
2018-Feb-19 00:29N 37°44' W 122°20'0 0.0
2018-Feb-18 23:59N 37°44' W 122°20'0 0.0
2018-Feb-18 23:29N 37°44' W 122°20'0 0.3
2018-Feb-18 22:59N 37°44' W 122°20'0 0.2
2018-Feb-18 22:29N 37°44' W 122°20'0 0.1
2018-Feb-18 21:59N 37°44' W 122°20'0 0.1
2018-Feb-18 21:29N 37°44' W 122°20'0 0.0
2018-Feb-18 20:59N 37°44' W 122°20'0 0.0
2018-Feb-18 20:29N 37°44' W 122°20'0 0.1
2018-Feb-18 19:59N 37°44' W 122°20'0 0.0
2018-Feb-18 19:29N 37°44' W 122°20'0 0.0
2018-Feb-18 18:59N 37°44' W 122°20'0 0.0
2018-Feb-18 18:29N 37°44' W 122°20'0 0.0
2018-Feb-18 17:59N 37°44' W 122°20'0 0.0
2018-Feb-18 17:29N 37°44' W 122°20'0 0.0
2018-Feb-18 16:59N 37°44' W 122°20'0 0.1
2018-Feb-18 16:29N 37°44' W 122°20'0 0.3
2018-Feb-18 15:59N 37°44' W 122°20'0 0.2
2018-Feb-18 15:29N 37°44' W 122°20'0 0.0
2018-Feb-18 14:59N 37°44' W 122°20'0 0.0
2018-Feb-18 14:29N 37°44' W 122°20'0 0.0
2018-Feb-18 13:59N 37°44' W 122°20'0 0.0
2018-Feb-18 13:29N 37°44' W 122°20'0 0.1
2018-Feb-18 12:59N 37°44' W 122°20'0 0.0
2018-Feb-18 12:29N 37°44' W 122°20'0 0.1
2018-Feb-18 11:59N 37°44' W 122°20'0 0.0
2018-Feb-18 11:29N 37°44' W 122°20'0 0.2
2018-Feb-18 10:59N 37°44' W 122°20'0 0.2
2018-Feb-18 10:29N 37°44' W 122°20'0 0.2
2018-Feb-18 09:59N 37°44' W 122°20'0 0.0
2018-Feb-18 09:29N 37°44' W 122°20'0 0.0
2018-Feb-18 08:59N 37°44' W 122°20'0 0.1
2018-Feb-18 08:29N 37°44' W 122°20'0 0.0
2018-Feb-18 07:56N 37°44' W 122°20'0 0.1
2018-Feb-18 07:29N 37°44' W 122°20'0 0.0
2018-Feb-18 06:59N 37°44' W 122°20'0 0.0
2018-Feb-18 06:29N 37°44' W 122°20'0 0.0
2018-Feb-18 05:59N 37°44' W 122°20'0 0.0
2018-Feb-18 05:29N 37°44' W 122°20'0 0.0
2018-Feb-18 04:59N 37°44' W 122°20'0 0.1
2018-Feb-18 04:29N 37°44' W 122°20'0 0.4
2018-Feb-18 03:59N 37°44' W 122°20'0 0.1
2018-Feb-18 03:29N 37°44' W 122°20'0 0.0
2018-Feb-18 02:59N 37°44' W 122°20'0 0.0
2018-Feb-18 02:29N 37°44' W 122°20'0 0.1
2018-Feb-18 01:59N 37°44' W 122°20'0 0.0
2018-Feb-18 01:29N 37°44' W 122°20'0 0.0
2018-Feb-18 00:59N 37°44' W 122°20'0 0.0
2018-Feb-18 00:29N 37°44' W 122°20'0 0.0
2018-Feb-17 23:59N 37°44' W 122°20'0 0.0
2018-Feb-17 23:29N 37°44' W 122°20'0 0.0
2018-Feb-17 22:59N 37°44' W 122°20'0 0.0
2018-Feb-17 22:29N 37°44' W 122°20'0 0.3
2018-Feb-17 21:59N 37°44' W 122°21'0 0.4
2018-Feb-17 21:29N 37°44' W 122°20'0 0.0
2018-Feb-17 20:59N 37°44' W 122°20'0 0.0
2018-Feb-17 20:29N 37°44' W 122°20'0 0.0
2018-Feb-17 19:59N 37°44' W 122°20'0 0.0
2018-Feb-17 19:29N 37°44' W 122°20'0 0.0
2018-Feb-17 18:59N 37°44' W 122°20'0 0.0
2018-Feb-17 18:29N 37°44' W 122°20'0 0.0
2018-Feb-17 17:59N 37°44' W 122°20'0 0.0
2018-Feb-17 17:29N 37°44' W 122°20'0 0.0
2018-Feb-17 16:59N 37°44' W 122°20'0 0.0
2018-Feb-17 16:29N 37°44' W 122°20'0 0.3
2018-Feb-17 15:59N 37°44' W 122°20'0 0.3
2018-Feb-17 15:29N 37°44' W 122°20'0 0.0
2018-Feb-17 14:59N 37°44' W 122°20'0 0.1
2018-Feb-17 14:29N 37°44' W 122°20'0 0.0
2018-Feb-17 13:59N 37°44' W 122°20'0 0.0
2018-Feb-17 13:29N 37°44' W 122°20'0 0.1
2018-Feb-17 12:59N 37°44' W 122°20'0 0.1
2018-Feb-17 12:29N 37°44' W 122°20'0 0.1
2018-Feb-17 11:59N 37°44' W 122°20'0 0.1
2018-Feb-17 11:29N 37°44' W 122°20'0 0.0
2018-Feb-17 10:59N 37°44' W 122°20'0 0.1
2018-Feb-17 10:29N 37°44' W 122°21'0 0.4
2018-Feb-17 09:59N 37°44' W 122°20'0 0.2
2018-Feb-17 09:29N 37°44' W 122°20'0 0.0
2018-Feb-17 08:59N 37°44' W 122°20'0 0.0
2018-Feb-17 08:29N 37°44' W 122°20'0 0.0
2018-Feb-17 07:59N 37°44' W 122°20'0 0.0
2018-Feb-17 07:29N 37°44' W 122°20'0 0.0
2018-Feb-17 06:59N 37°44' W 122°20'0 0.0
2018-Feb-17 06:29N 37°44' W 122°20'0 0.0
2018-Feb-17 05:59N 37°44' W 122°20'0 0.0
2018-Feb-17 05:29N 37°44' W 122°20'0 0.0
2018-Feb-17 04:59N 37°44' W 122°20'0 0.0
2018-Feb-17 04:29N 37°44' W 122°20'0 0.0
2018-Feb-17 03:59N 37°44' W 122°20'0 0.4
2018-Feb-17 03:29N 37°44' W 122°20'0 0.2
2018-Feb-17 02:59N 37°44' W 122°20'0 0.0
2018-Feb-17 02:29N 37°44' W 122°20'0 0.0
2018-Feb-17 01:59N 37°44' W 122°20'0 0.1
2018-Feb-17 01:29N 37°44' W 122°20'0 0.0
2018-Feb-17 00:59N 37°44' W 122°20'0 0.0
2018-Feb-17 00:29N 37°44' W 122°20'0 0.0
2018-Feb-16 23:59N 37°44' W 122°20'0 0.0
2018-Feb-16 23:29N 37°44' W 122°20'0 0.0
2018-Feb-16 22:59N 37°44' W 122°20'0 0.0
2018-Feb-16 22:29N 37°44' W 122°20'0 0.0
2018-Feb-16 21:59N 37°44' W 122°20'0 0.0
2018-Feb-16 21:29N 37°44' W 122°20'0 0.6
2018-Feb-16 20:59N 37°44' W 122°20'0 0.1
2018-Feb-16 20:29N 37°44' W 122°20'0 0.0
2018-Feb-16 19:59N 37°44' W 122°20'0 0.0
2018-Feb-16 19:29N 37°44' W 122°20'0 0.0
2018-Feb-16 18:59N 37°44' W 122°20'0 0.0
2018-Feb-16 18:29N 37°44' W 122°20'0 0.0
2018-Feb-16 17:59N 37°44' W 122°20'0 0.0
2018-Feb-16 17:29N 37°44' W 122°20'0 0.0
2018-Feb-16 16:59N 37°44' W 122°20'0 0.0
2018-Feb-16 16:29N 37°44' W 122°20'0 0.0
2018-Feb-16 15:59N 37°44' W 122°20'0 0.5
2018-Feb-16 15:29N 37°44' W 122°20'0 0.2
2018-Feb-16 14:59N 37°44' W 122°20'0 0.0
2018-Feb-16 14:29N 37°44' W 122°20'0 0.0
2018-Feb-16 13:59N 37°44' W 122°20'0 0.0
2018-Feb-16 13:29N 37°44' W 122°20'0 0.0
2018-Feb-16 12:59N 37°44' W 122°20'0 0.0
2018-Feb-16 12:29N 37°44' W 122°20'0 0.0
2018-Feb-16 11:59N 37°44' W 122°20'0 0.1
2018-Feb-16 11:29N 37°44' W 122°20'0 0.0
2018-Feb-16 10:59N 37°44' W 122°20'0 0.0
2018-Feb-16 10:29N 37°44' W 122°20'0 0.1
2018-Feb-16 09:59N 37°44' W 122°21'0 0.4
2018-Feb-16 09:29N 37°44' W 122°20'0 0.0
2018-Feb-16 08:59N 37°44' W 122°20'0 0.0
2018-Feb-16 08:29N 37°44' W 122°20'0 0.1
2018-Feb-16 07:59N 37°44' W 122°20'0 0.0
2018-Feb-16 07:29N 37°44' W 122°20'0 0.0
2018-Feb-16 06:59N 37°44' W 122°20'0 0.1
2018-Feb-16 06:29N 37°44' W 122°20'0 0.1
2018-Feb-16 05:59N 37°44' W 122°20'0 0.0
2018-Feb-16 05:29N 37°44' W 122°20'0 0.0
2018-Feb-16 04:59N 37°44' W 122°20'0 0.0
2018-Feb-16 04:29N 37°44' W 122°20'0 0.0
2018-Feb-16 03:59N 37°44' W 122°20'0 0.1
2018-Feb-16 03:29N 37°44' W 122°20'0 0.4
2018-Feb-16 02:59N 37°44' W 122°20'0 0.1
2018-Feb-16 02:29N 37°44' W 122°20'0 0.0
2018-Feb-16 01:59N 37°44' W 122°20'0 0.0
2018-Feb-16 01:29N 37°44' W 122°20'0 0.0
2018-Feb-16 00:59N 37°44' W 122°20'0 0.1
2018-Feb-16 00:29N 37°44' W 122°20'0 0.2
2018-Feb-15 23:59N 37°44' W 122°20'0 0.0
2018-Feb-15 23:29N 37°44' W 122°20'2 4.6
2018-Feb-15 23:00N 37°46' W 122°22'4 7.1
2018-Feb-15 22:30N 37°49' W 122°25'4 7.9
2018-Feb-15 22:00N 37°49' W 122°30'510.1
2018-Feb-15 21:30N 37°47' W 122°35'5 9.9
2018-Feb-15 21:00N 37°44' W 122°41'4 7.2
2018-Feb-15 20:30N 37°40' W 122°40'4 7.8
2018-Feb-15 20:00N 37°36' W 122°40'4 8.4
2018-Feb-15 19:30N 37°32' W 122°40'4 8.5
2018-Feb-15 19:00N 37°28' W 122°40'4 8.6
2018-Feb-15 18:30N 37°24' W 122°40'4 8.7
2018-Feb-15 18:00N 37°19' W 122°40'4 8.7
2018-Feb-15 17:30N 37°15' W 122°40'4 8.6
2018-Feb-15 17:00N 37°11' W 122°40'4 7.7
2018-Feb-15 16:30N 37°07' W 122°40'3 5.9
2018-Feb-15 16:00N 37°04' W 122°40'611.6
2018-Feb-15 15:27N 36°58' W 122°39'13211.8
2018-Feb-15 04:16N 34°48' W 122°05'312.2
2018-Feb-15 04:00N 34°46' W 122°03'612.1
2018-Feb-15 03:30N 34°40' W 121°60'612.1
2018-Feb-15 03:00N 34°35' W 121°56'612.0
2018-Feb-15 02:30N 34°30' W 121°53'712.0
2018-Feb-15 01:54N 34°23' W 121°48'512.1
2018-Feb-15 01:29N 34°19' W 121°46'612.2
2018-Feb-15 01:00N 34°13' W 121°43'612.4
2018-Feb-15 00:30N 34°08' W 121°40'612.5
2018-Feb-15 00:00N 34°02' W 121°36'612.6
2018-Feb-14 23:30N 33°57' W 121°32'912.7
2018-Feb-14 22:48N 33°49' W 121°27'412.5
2018-Feb-14 22:30N 33°46' W 121°25'612.4
2018-Feb-14 22:00N 33°40' W 121°22'612.4
2018-Feb-14 21:30N 33°34' W 121°19'612.6
2018-Feb-14 21:00N 33°29' W 121°16'612.3
2018-Feb-14 20:30N 33°23' W 121°12'612.1
2018-Feb-14 20:00N 33°18' W 121°08'612.3
2018-Feb-14 19:30N 33°13' W 121°04'1212.5
2018-Feb-14 18:34N 33°04' W 120°55'212.3
2018-Feb-14 18:26N 33°03' W 120°54'512.4
2018-Feb-14 18:00N 32°58' W 120°51'612.3
2018-Feb-14 17:29N 32°53' W 120°46'  
Track history (hours):
 
Tides and Currents Weather Stations Pressure Air Temp Water Temp Dewpoint Dewpoint Depression Visibility Wind Speed Wind Dir Waves Ship Positions

Oklahoma

Last reported at 2018-Feb-24 15:02 UTC. Time now 2018-Feb-26 01:55 UTC.
Position N 38°02' W 122°07'.

Length 238 m; draft 11.5 m.

Type: Tanker. MMSI: 308664000.

Date/timePositionNaut miles runAvg speedWind from/ knotsBaromVisibWave heightAir tempDewpointWater temp
2018-Feb-24 15:02N 38°02' W 122°07'0 0.0
2018-Feb-24 14:59N 38°02' W 122°07'0 0.1
2018-Feb-24 14:29N 38°02' W 122°07'1 2.0
2018-Feb-24 14:00N 38°02' W 122°09'4 7.9
2018-Feb-24 13:29N 38°04' W 122°13'5 9.9
2018-Feb-24 13:00N 38°03' W 122°19'510.8
2018-Feb-24 12:30N 38°00' W 122°25'611.1
2018-Feb-24 12:00N 37°55' W 122°27'510.6
2018-Feb-24 11:30N 37°50' W 122°24'4 8.6
2018-Feb-24 11:00N 37°46' W 122°21'2 4.5
2018-Feb-24 10:29N 37°44' W 122°20'0 0.1
2018-Feb-24 09:59N 37°44' W 122°20'0 0.0
2018-Feb-24 09:29N 37°44' W 122°20'0 0.3
2018-Feb-24 08:59N 37°44' W 122°20'0 0.2
2018-Feb-24 08:29N 37°44' W 122°20'0 0.1
2018-Feb-24 07:59N 37°44' W 122°20'0 0.0
2018-Feb-24 07:29N 37°44' W 122°20'0 0.0
2018-Feb-24 06:59N 37°44' W 122°20'0 0.0
2018-Feb-24 06:29N 37°44' W 122°20'0 0.0
2018-Feb-24 05:59N 37°44' W 122°20'0 0.0
2018-Feb-24 05:29N 37°44' W 122°20'0 0.0
2018-Feb-24 04:59N 37°44' W 122°20'0 0.1
2018-Feb-24 04:29N 37°44' W 122°20'0 0.2
2018-Feb-24 03:59N 37°44' W 122°20'0 0.2
2018-Feb-24 03:29N 37°44' W 122°20'0 0.0
2018-Feb-24 02:59N 37°44' W 122°20'0 0.0
2018-Feb-24 02:29N 37°44' W 122°20'0 0.0
2018-Feb-24 01:59N 37°44' W 122°20'0 0.1
2018-Feb-24 01:29N 37°44' W 122°20'0 0.0
2018-Feb-24 00:59N 37°44' W 122°20'0 0.0
2018-Feb-24 00:29N 37°44' W 122°20'0 0.0
2018-Feb-23 23:59N 37°44' W 122°20'0 0.0
2018-Feb-23 23:29N 37°44' W 122°20'0 0.0
2018-Feb-23 22:59N 37°44' W 122°20'0 0.0
2018-Feb-23 22:29N 37°44' W 122°20'0 0.1
2018-Feb-23 21:59N 37°44' W 122°20'0 0.1
2018-Feb-23 21:29N 37°44' W 122°20'0 0.2
2018-Feb-23 20:59N 37°44' W 122°20'0 0.3
2018-Feb-23 20:29N 37°44' W 122°20'0 0.1
2018-Feb-23 19:59N 37°44' W 122°20'0 0.0
2018-Feb-23 19:29N 37°44' W 122°20'0 0.0
2018-Feb-23 18:59N 37°44' W 122°20'0 0.0
2018-Feb-23 18:29N 37°44' W 122°20'0 0.0
2018-Feb-23 17:59N 37°44' W 122°20'0 0.0
2018-Feb-23 17:29N 37°44' W 122°20'0 0.0
2018-Feb-23 16:59N 37°44' W 122°20'0 0.0
2018-Feb-23 16:29N 37°44' W 122°20'0 0.0
2018-Feb-23 15:59N 37°44' W 122°20'0 0.0
2018-Feb-23 15:29N 37°44' W 122°20'0 0.1
2018-Feb-23 14:59N 37°44' W 122°20'0 0.3
2018-Feb-23 14:29N 37°44' W 122°20'0 0.2
2018-Feb-23 13:59N 37°44' W 122°20'0 0.2
2018-Feb-23 13:29N 37°44' W 122°20'0 0.0
2018-Feb-23 12:59N 37°44' W 122°20'0 0.0
2018-Feb-23 12:29N 37°44' W 122°20'0 0.0
2018-Feb-23 11:59N 37°44' W 122°20'0 0.0
2018-Feb-23 11:29N 37°44' W 122°20'0 0.0
2018-Feb-23 10:59N 37°44' W 122°20'0 0.0
2018-Feb-23 10:29N 37°44' W 122°20'0 0.0
2018-Feb-23 09:59N 37°44' W 122°20'0 0.0
2018-Feb-23 09:29N 37°44' W 122°20'0 0.0
2018-Feb-23 08:59N 37°44' W 122°20'0 0.0
2018-Feb-23 08:29N 37°44' W 122°20'0 0.0
2018-Feb-23 07:59N 37°44' W 122°20'0 0.4
2018-Feb-23 07:29N 37°44' W 122°20'0 0.2
2018-Feb-23 06:59N 37°44' W 122°20'0 0.0
2018-Feb-23 06:29N 37°44' W 122°20'0 0.1
2018-Feb-23 05:59N 37°44' W 122°20'0 0.0
2018-Feb-23 05:29N 37°44' W 122°20'0 0.0
2018-Feb-23 04:59N 37°44' W 122°20'0 0.0
2018-Feb-23 04:29N 37°44' W 122°20'0 0.1
2018-Feb-23 03:59N 37°44' W 122°20'0 0.3
2018-Feb-23 03:29N 37°44' W 122°20'0 0.1
2018-Feb-23 02:59N 37°44' W 122°20'0 0.1
2018-Feb-23 02:29N 37°44' W 122°20'0 0.0
2018-Feb-23 01:59N 37°44' W 122°20'0 0.0
2018-Feb-23 01:29N 37°44' W 122°20'0 0.0
2018-Feb-23 00:59N 37°44' W 122°20'0 0.1
2018-Feb-23 00:29N 37°44' W 122°20'0 0.0
2018-Feb-22 23:59N 37°44' W 122°20'0 0.0
2018-Feb-22 23:29N 37°44' W 122°20'0 0.0
2018-Feb-22 22:59N 37°44' W 122°20'0 0.0
2018-Feb-22 22:29N 37°44' W 122°20'0 0.0
2018-Feb-22 21:59N 37°44' W 122°20'0 0.0
2018-Feb-22 21:29N 37°44' W 122°20'0 0.0
2018-Feb-22 20:59N 37°44' W 122°20'0 0.0
2018-Feb-22 20:29N 37°44' W 122°20'0 0.1
2018-Feb-22 19:59N 37°44' W 122°20'0 0.3
2018-Feb-22 19:29N 37°44' W 122°20'0 0.3
2018-Feb-22 18:59N 37°44' W 122°20'0 0.0
2018-Feb-22 18:29N 37°44' W 122°20'0 0.0
2018-Feb-22 17:59N 37°44' W 122°20'0 0.1
2018-Feb-22 17:29N 37°44' W 122°20'0 0.0
2018-Feb-22 16:59N 37°44' W 122°20'0 0.0
2018-Feb-22 16:29N 37°44' W 122°20'0 0.0
2018-Feb-22 15:59N 37°44' W 122°20'0 0.0
2018-Feb-22 15:26N 37°44' W 122°20'0 0.0
2018-Feb-22 14:59N 37°44' W 122°20'0 0.1
2018-Feb-22 14:29N 37°44' W 122°20'0 0.0
2018-Feb-22 13:59N 37°44' W 122°20'0 0.3
2018-Feb-22 13:29N 37°44' W 122°20'0 0.3
2018-Feb-22 12:59N 37°44' W 122°20'0 0.1
2018-Feb-22 12:29N 37°44' W 122°20'0 0.0
2018-Feb-22 11:59N 37°44' W 122°20'0 0.0
2018-Feb-22 11:29N 37°44' W 122°20'0 0.0
2018-Feb-22 10:59N 37°44' W 122°20'0 0.0
2018-Feb-22 10:29N 37°44' W 122°20'0 0.0
2018-Feb-22 09:59N 37°44' W 122°20'0 0.0
2018-Feb-22 09:29N 37°44' W 122°20'0 0.0
2018-Feb-22 08:59N 37°44' W 122°20'0 0.0
2018-Feb-22 08:29N 37°44' W 122°20'0 0.0
2018-Feb-22 07:59N 37°44' W 122°20'0 0.1
2018-Feb-22 07:29N 37°44' W 122°20'0 0.0
2018-Feb-22 06:59N 37°44' W 122°20'0 0.2
2018-Feb-22 06:29N 37°44' W 122°20'0 0.3
2018-Feb-22 05:59N 37°44' W 122°20'0 0.1
2018-Feb-22 05:29N 37°44' W 122°20'0 0.0
2018-Feb-22 04:59N 37°44' W 122°20'0 0.0
2018-Feb-22 04:29N 37°44' W 122°20'0 0.0
2018-Feb-22 03:59N 37°44' W 122°20'0 0.0
2018-Feb-22 03:29N 37°44' W 122°20'0 0.0
2018-Feb-22 02:59N 37°44' W 122°20'0 0.0
2018-Feb-22 02:29N 37°44' W 122°20'0 0.0
2018-Feb-22 01:59N 37°44' W 122°20'0 0.2
2018-Feb-22 01:29N 37°44' W 122°20'0 0.3
2018-Feb-22 00:59N 37°44' W 122°20'0 0.1
2018-Feb-22 00:29N 37°44' W 122°20'0 0.0
2018-Feb-21 23:59N 37°44' W 122°20'0 0.0
2018-Feb-21 23:29N 37°44' W 122°20'0 0.1
2018-Feb-21 22:59N 37°44' W 122°20'0 0.0
2018-Feb-21 22:29N 37°44' W 122°20'0 0.0
2018-Feb-21 21:59N 37°44' W 122°20'0 0.0
2018-Feb-21 21:29N 37°44' W 122°20'0 0.0
2018-Feb-21 20:59N 37°44' W 122°20'0 0.0
2018-Feb-21 20:29N 37°44' W 122°20'0 0.0
2018-Feb-21 19:59N 37°44' W 122°20'0 0.0
2018-Feb-21 19:29N 37°44' W 122°20'0 0.2
2018-Feb-21 18:59N 37°44' W 122°20'0 0.4
2018-Feb-21 18:29N 37°44' W 122°20'0 0.1
2018-Feb-21 17:59N 37°44' W 122°20'0 0.0
2018-Feb-21 17:29N 37°44' W 122°20'0 0.0
2018-Feb-21 16:59N 37°44' W 122°20'0 0.0
2018-Feb-21 16:29N 37°44' W 122°20'0 0.0
2018-Feb-21 15:59N 37°44' W 122°20'0 0.0
2018-Feb-21 15:29N 37°44' W 122°20'0 0.0
2018-Feb-21 14:59N 37°44' W 122°20'0 0.0
2018-Feb-21 14:29N 37°44' W 122°20'0 0.0
2018-Feb-21 13:59N 37°44' W 122°20'0 0.1
2018-Feb-21 13:29N 37°44' W 122°20'0 0.0
2018-Feb-21 12:59N 37°44' W 122°20'0 0.1
2018-Feb-21 12:29N 37°44' W 122°21'0 0.4
2018-Feb-21 11:59N 37°44' W 122°20'0 0.1
2018-Feb-21 11:29N 37°44' W 122°20'0 0.1
2018-Feb-21 10:59N 37°44' W 122°20'0 0.0
2018-Feb-21 10:29N 37°44' W 122°20'0 0.0
2018-Feb-21 09:59N 37°44' W 122°20'0 0.0
2018-Feb-21 09:29N 37°44' W 122°20'0 0.0
2018-Feb-21 08:59N 37°44' W 122°20'0 0.0
2018-Feb-21 08:29N 37°44' W 122°20'0 0.1
2018-Feb-21 07:59N 37°44' W 122°20'0 0.0
2018-Feb-21 07:29N 37°44' W 122°20'0 0.0
2018-Feb-21 06:59N 37°44' W 122°20'0 0.0
2018-Feb-21 06:29N 37°44' W 122°20'0 0.1
2018-Feb-21 05:56N 37°44' W 122°20'0 0.3
2018-Feb-21 05:29N 37°44' W 122°20'0 0.2
2018-Feb-21 04:59N 37°44' W 122°20'0 0.0
2018-Feb-21 04:29N 37°44' W 122°20'0 0.1
2018-Feb-21 03:59N 37°44' W 122°20'0 0.0
2018-Feb-21 03:29N 37°44' W 122°20'0 0.0
2018-Feb-21 02:59N 37°44' W 122°20'0 0.0
2018-Feb-21 02:29N 37°44' W 122°20'0 0.0
2018-Feb-21 01:59N 37°44' W 122°20'0 0.0
2018-Feb-21 01:29N 37°44' W 122°20'0 0.1
2018-Feb-21 00:59N 37°44' W 122°20'0 0.0
2018-Feb-21 00:29N 37°44' W 122°20'0 0.3
2018-Feb-20 23:59N 37°44' W 122°20'0 0.3
2018-Feb-20 23:29N 37°44' W 122°20'0 0.1
2018-Feb-20 22:59N 37°44' W 122°20'0 0.0
2018-Feb-20 22:29N 37°44' W 122°20'0 0.0
2018-Feb-20 21:59N 37°44' W 122°20'0 0.0
2018-Feb-20 21:29N 37°44' W 122°20'0 0.0
2018-Feb-20 20:59N 37°44' W 122°20'0 0.0
2018-Feb-20 20:29N 37°44' W 122°20'0 0.0
2018-Feb-20 19:59N 37°44' W 122°20'0 0.0
2018-Feb-20 19:29N 37°44' W 122°20'0 0.1
2018-Feb-20 18:59N 37°44' W 122°20'0 0.1
2018-Feb-20 18:29N 37°44' W 122°20'0 0.3
2018-Feb-20 17:59N 37°44' W 122°20'0 0.3
2018-Feb-20 17:29N 37°44' W 122°20'0 0.1
2018-Feb-20 16:59N 37°44' W 122°20'0 0.0
2018-Feb-20 16:29N 37°44' W 122°20'0 0.0
2018-Feb-20 15:59N 37°44' W 122°20'0 0.0
2018-Feb-20 15:29N 37°44' W 122°20'0 0.0
2018-Feb-20 14:59N 37°44' W 122°20'0 0.0
2018-Feb-20 14:29N 37°44' W 122°20'0 0.0
2018-Feb-20 13:59N 37°44' W 122°20'0 0.0
2018-Feb-20 13:29N 37°44' W 122°20'0 0.0
2018-Feb-20 12:59N 37°44' W 122°20'0 0.0
2018-Feb-20 12:29N 37°44' W 122°20'0 0.3
2018-Feb-20 11:59N 37°44' W 122°20'0 0.3
2018-Feb-20 11:29N 37°44' W 122°20'0 0.0
2018-Feb-20 10:59N 37°44' W 122°20'0 0.1
2018-Feb-20 10:29N 37°44' W 122°20'0 0.0
2018-Feb-20 09:59N 37°44' W 122°20'0 0.0
2018-Feb-20 09:29N 37°44' W 122°20'0 0.0
2018-Feb-20 08:59N 37°44' W 122°20'0 0.1
2018-Feb-20 08:29N 37°44' W 122°20'0 0.0
2018-Feb-20 07:59N 37°44' W 122°20'0 0.1
2018-Feb-20 07:29N 37°44' W 122°20'0 0.0
2018-Feb-20 06:59N 37°44' W 122°20'0 0.0
2018-Feb-20 06:29N 37°44' W 122°20'0 0.0
2018-Feb-20 05:59N 37°44' W 122°20'0 0.0
2018-Feb-20 05:29N 37°44' W 122°20'0 0.2
2018-Feb-20 04:59N 37°44' W 122°20'0 0.4
2018-Feb-20 04:29N 37°44' W 122°20'0 0.1
2018-Feb-20 03:59N 37°44' W 122°20'0 0.1
2018-Feb-20 03:29N 37°44' W 122°20'0 0.1
2018-Feb-20 02:59N 37°44' W 122°20'0 0.0
2018-Feb-20 02:29N 37°44' W 122°20'0 0.1
2018-Feb-20 01:59N 37°44' W 122°20'0 0.0
2018-Feb-20 01:29N 37°44' W 122°20'0 0.0
2018-Feb-20 00:59N 37°44' W 122°20'0 0.1
2018-Feb-20 00:29N 37°44' W 122°20'0 0.0
2018-Feb-19 23:59N 37°44' W 122°20'0 0.4
2018-Feb-19 23:29N 37°44' W 122°20'0 0.3
2018-Feb-19 22:59N 37°44' W 122°20'0 0.1
2018-Feb-19 22:29N 37°44' W 122°20'0 0.1
2018-Feb-19 21:59N 37°44' W 122°20'0 0.1
2018-Feb-19 21:29N 37°44' W 122°20'0 0.0
2018-Feb-19 20:59N 37°44' W 122°20'0 0.0
2018-Feb-19 20:29N 37°44' W 122°20'0 0.0
2018-Feb-19 19:59N 37°44' W 122°20'0 0.0
2018-Feb-19 19:29N 37°44' W 122°20'0 0.0
2018-Feb-19 18:59N 37°44' W 122°20'0 0.0
2018-Feb-19 18:29N 37°44' W 122°20'0 0.0
2018-Feb-19 17:59N 37°44' W 122°20'0 0.0
2018-Feb-19 17:29N 37°44' W 122°20'0 0.0
2018-Feb-19 16:59N 37°44' W 122°20'0 0.3
2018-Feb-19 16:29N 37°44' W 122°20'0 0.2
2018-Feb-19 15:59N 37°44' W 122°20'0 0.0
2018-Feb-19 15:29N 37°44' W 122°20'0 0.0
2018-Feb-19 14:59N 37°44' W 122°20'0 0.1
2018-Feb-19 14:29N 37°44' W 122°20'0 0.0
2018-Feb-19 13:59N 37°44' W 122°20'0 0.0
2018-Feb-19 13:29N 37°44' W 122°20'0 0.0
2018-Feb-19 12:59N 37°44' W 122°20'0 0.1
2018-Feb-19 12:29N 37°44' W 122°20'0 0.1
2018-Feb-19 11:59N 37°44' W 122°20'0 0.2
2018-Feb-19 11:29N 37°44' W 122°20'0 0.2
2018-Feb-19 10:59N 37°44' W 122°20'0 0.1
2018-Feb-19 10:29N 37°44' W 122°20'0 0.1
2018-Feb-19 09:59N 37°44' W 122°20'0 0.0
2018-Feb-19 09:29N 37°44' W 122°20'0 0.0
2018-Feb-19 08:59N 37°44' W 122°20'0 0.0
2018-Feb-19 08:29N 37°44' W 122°20'0 0.0
2018-Feb-19 07:59N 37°44' W 122°20'0 0.0
2018-Feb-19 07:29N 37°44' W 122°20'0 0.0
2018-Feb-19 06:59N 37°44' W 122°20'0 0.0
2018-Feb-19 06:29N 37°44' W 122°20'0 0.0
2018-Feb-19 05:59N 37°44' W 122°20'0 0.0
2018-Feb-19 05:29N 37°44' W 122°20'0 0.0
2018-Feb-19 04:59N 37°44' W 122°20'0 0.1
2018-Feb-19 04:29N 37°44' W 122°20'0 0.3
2018-Feb-19 03:59N 37°44' W 122°20'0 0.1
2018-Feb-19 03:29N 37°44' W 122°20'0 0.1
2018-Feb-19 02:59N 37°44' W 122°20'0 0.0
2018-Feb-19 02:29N 37°44' W 122°20'0 0.0
2018-Feb-19 01:59N 37°44' W 122°20'0 0.0
2018-Feb-19 01:29N 37°44' W 122°20'0 0.1
2018-Feb-19 00:59N 37°44' W 122°20'0 0.1
2018-Feb-19 00:29N 37°44' W 122°20'0 0.0
2018-Feb-18 23:59N 37°44' W 122°20'0 0.0
2018-Feb-18 23:29N 37°44' W 122°20'0 0.3
2018-Feb-18 22:59N 37°44' W 122°20'0 0.2
2018-Feb-18 22:29N 37°44' W 122°20'0 0.1
2018-Feb-18 21:59N 37°44' W 122°20'0 0.1
2018-Feb-18 21:29N 37°44' W 122°20'0 0.0
2018-Feb-18 20:59N 37°44' W 122°20'0 0.0
2018-Feb-18 20:29N 37°44' W 122°20'0 0.1
2018-Feb-18 19:59N 37°44' W 122°20'0 0.0
2018-Feb-18 19:29N 37°44' W 122°20'0 0.0
2018-Feb-18 18:59N 37°44' W 122°20'0 0.0
2018-Feb-18 18:29N 37°44' W 122°20'0 0.0
2018-Feb-18 17:59N 37°44' W 122°20'0 0.0
2018-Feb-18 17:29N 37°44' W 122°20'0 0.0
2018-Feb-18 16:59N 37°44' W 122°20'0 0.1
2018-Feb-18 16:29N 37°44' W 122°20'0 0.3
2018-Feb-18 15:59N 37°44' W 122°20'0 0.2
2018-Feb-18 15:29N 37°44' W 122°20'0 0.0
2018-Feb-18 14:59N 37°44' W 122°20'0 0.0
2018-Feb-18 14:29N 37°44' W 122°20'0 0.0
2018-Feb-18 13:59N 37°44' W 122°20'0 0.0
2018-Feb-18 13:29N 37°44' W 122°20'0 0.1
2018-Feb-18 12:59N 37°44' W 122°20'0 0.0
2018-Feb-18 12:29N 37°44' W 122°20'0 0.1
2018-Feb-18 11:59N 37°44' W 122°20'0 0.0
2018-Feb-18 11:29N 37°44' W 122°20'0 0.2
2018-Feb-18 10:59N 37°44' W 122°20'0 0.2
2018-Feb-18 10:29N 37°44' W 122°20'0 0.2
2018-Feb-18 09:59N 37°44' W 122°20'0 0.0
2018-Feb-18 09:29N 37°44' W 122°20'0 0.0
2018-Feb-18 08:59N 37°44' W 122°20'0 0.1
2018-Feb-18 08:29N 37°44' W 122°20'0 0.0
2018-Feb-18 07:56N 37°44' W 122°20'0 0.1
2018-Feb-18 07:29N 37°44' W 122°20'0 0.0
2018-Feb-18 06:59N 37°44' W 122°20'0 0.0
2018-Feb-18 06:29N 37°44' W 122°20'0 0.0
2018-Feb-18 05:59N 37°44' W 122°20'0 0.0
2018-Feb-18 05:29N 37°44' W 122°20'0 0.0
2018-Feb-18 04:59N 37°44' W 122°20'0 0.1
2018-Feb-18 04:29N 37°44' W 122°20'0 0.4
2018-Feb-18 03:59N 37°44' W 122°20'0 0.1
2018-Feb-18 03:29N 37°44' W 122°20'0 0.0
2018-Feb-18 02:59N 37°44' W 122°20'0 0.0
2018-Feb-18 02:29N 37°44' W 122°20'0 0.1
2018-Feb-18 01:59N 37°44' W 122°20'0 0.0
2018-Feb-18 01:29N 37°44' W 122°20'0 0.0
2018-Feb-18 00:59N 37°44' W 122°20'0 0.0
2018-Feb-18 00:29N 37°44' W 122°20'0 0.0
2018-Feb-17 23:59N 37°44' W 122°20'0 0.0
2018-Feb-17 23:29N 37°44' W 122°20'0 0.0
2018-Feb-17 22:59N 37°44' W 122°20'0 0.0
2018-Feb-17 22:29N 37°44' W 122°20'0 0.3
2018-Feb-17 21:59N 37°44' W 122°21'0 0.4
2018-Feb-17 21:29N 37°44' W 122°20'0 0.0
2018-Feb-17 20:59N 37°44' W 122°20'0 0.0
2018-Feb-17 20:29N 37°44' W 122°20'0 0.0
2018-Feb-17 19:59N 37°44' W 122°20'0 0.0
2018-Feb-17 19:29N 37°44' W 122°20'0 0.0
2018-Feb-17 18:59N 37°44' W 122°20'0 0.0
2018-Feb-17 18:29N 37°44' W 122°20'0 0.0
2018-Feb-17 17:59N 37°44' W 122°20'0 0.0
2018-Feb-17 17:29N 37°44' W 122°20'0 0.0
2018-Feb-17 16:59N 37°44' W 122°20'0 0.0
2018-Feb-17 16:29N 37°44' W 122°20'0 0.3
2018-Feb-17 15:59N 37°44' W 122°20'0 0.3
2018-Feb-17 15:29N 37°44' W 122°20'0 0.0
2018-Feb-17 14:59N 37°44' W 122°20'0 0.1
2018-Feb-17 14:29N 37°44' W 122°20'0 0.0
2018-Feb-17 13:59N 37°44' W 122°20'0 0.0
2018-Feb-17 13:29N 37°44' W 122°20'0 0.1
2018-Feb-17 12:59N 37°44' W 122°20'0 0.1
2018-Feb-17 12:29N 37°44' W 122°20'0 0.1
2018-Feb-17 11:59N 37°44' W 122°20'0 0.1
2018-Feb-17 11:29N 37°44' W 122°20'0 0.0
2018-Feb-17 10:59N 37°44' W 122°20'0 0.1
2018-Feb-17 10:29N 37°44' W 122°21'0 0.4
2018-Feb-17 09:59N 37°44' W 122°20'0 0.2
2018-Feb-17 09:29N 37°44' W 122°20'0 0.0
2018-Feb-17 08:59N 37°44' W 122°20'0 0.0
2018-Feb-17 08:29N 37°44' W 122°20'0 0.0
2018-Feb-17 07:59N 37°44' W 122°20'0 0.0
2018-Feb-17 07:29N 37°44' W 122°20'0 0.0
2018-Feb-17 06:59N 37°44' W 122°20'0 0.0
2018-Feb-17 06:29N 37°44' W 122°20'0 0.0
2018-Feb-17 05:59N 37°44' W 122°20'0 0.0
2018-Feb-17 05:29N 37°44' W 122°20'0 0.0
2018-Feb-17 04:59N 37°44' W 122°20'0 0.0
2018-Feb-17 04:29N 37°44' W 122°20'0 0.0
2018-Feb-17 03:59N 37°44' W 122°20'0 0.4
2018-Feb-17 03:29N 37°44' W 122°20'0 0.2
2018-Feb-17 02:59N 37°44' W 122°20'0 0.0
2018-Feb-17 02:29N 37°44' W 122°20'0 0.0
2018-Feb-17 01:59N 37°44' W 122°20'0 0.1
2018-Feb-17 01:29N 37°44' W 122°20'0 0.0
2018-Feb-17 00:59N 37°44' W 122°20'0 0.0
2018-Feb-17 00:29N 37°44' W 122°20'0 0.0
2018-Feb-16 23:59N 37°44' W 122°20'0 0.0
2018-Feb-16 23:29N 37°44' W 122°20'0 0.0
2018-Feb-16 22:59N 37°44' W 122°20'0 0.0
2018-Feb-16 22:29N 37°44' W 122°20'0 0.0
2018-Feb-16 21:59N 37°44' W 122°20'0 0.0
2018-Feb-16 21:29N 37°44' W 122°20'0 0.6
2018-Feb-16 20:59N 37°44' W 122°20'0 0.1
2018-Feb-16 20:29N 37°44' W 122°20'0 0.0
2018-Feb-16 19:59N 37°44' W 122°20'0 0.0
2018-Feb-16 19:29N 37°44' W 122°20'0 0.0
2018-Feb-16 18:59N 37°44' W 122°20'0 0.0
2018-Feb-16 18:29N 37°44' W 122°20'0 0.0
2018-Feb-16 17:59N 37°44' W 122°20'0 0.0
2018-Feb-16 17:29N 37°44' W 122°20'0 0.0
2018-Feb-16 16:59N 37°44' W 122°20'0 0.0
2018-Feb-16 16:29N 37°44' W 122°20'0 0.0
2018-Feb-16 15:59N 37°44' W 122°20'0 0.5
2018-Feb-16 15:29N 37°44' W 122°20'0 0.2
2018-Feb-16 14:59N 37°44' W 122°20'0 0.0
2018-Feb-16 14:29N 37°44' W 122°20'0 0.0
2018-Feb-16 13:59N 37°44' W 122°20'0 0.0
2018-Feb-16 13:29N 37°44' W 122°20'0 0.0
2018-Feb-16 12:59N 37°44' W 122°20'0 0.0
2018-Feb-16 12:29N 37°44' W 122°20'0 0.0
2018-Feb-16 11:59N 37°44' W 122°20'0 0.1
2018-Feb-16 11:29N 37°44' W 122°20'0 0.0
2018-Feb-16 10:59N 37°44' W 122°20'0 0.0
2018-Feb-16 10:29N 37°44' W 122°20'0 0.1
2018-Feb-16 09:59N 37°44' W 122°21'0 0.4
2018-Feb-16 09:29N 37°44' W 122°20'0 0.0
2018-Feb-16 08:59N 37°44' W 122°20'0 0.0
2018-Feb-16 08:29N 37°44' W 122°20'0 0.1
2018-Feb-16 07:59N 37°44' W 122°20'0 0.0
2018-Feb-16 07:29N 37°44' W 122°20'0 0.0
2018-Feb-16 06:59N 37°44' W 122°20'0 0.1
2018-Feb-16 06:29N 37°44' W 122°20'0 0.1
2018-Feb-16 05:59N 37°44' W 122°20'0 0.0
2018-Feb-16 05:29N 37°44' W 122°20'0 0.0
2018-Feb-16 04:59N 37°44' W 122°20'0 0.0
2018-Feb-16 04:29N 37°44' W 122°20'0 0.0
2018-Feb-16 03:59N 37°44' W 122°20'0 0.1
2018-Feb-16 03:29N 37°44' W 122°20'0 0.4
2018-Feb-16 02:59N 37°44' W 122°20'0 0.1
2018-Feb-16 02:29N 37°44' W 122°20'0 0.0
2018-Feb-16 01:59N 37°44' W 122°20'0 0.0
2018-Feb-16 01:29N 37°44' W 122°20'0 0.0
2018-Feb-16 00:59N 37°44' W 122°20'0 0.1
2018-Feb-16 00:29N 37°44' W 122°20'0 0.2
2018-Feb-15 23:59N 37°44' W 122°20'0 0.0
2018-Feb-15 23:29N 37°44' W 122°20'2 4.6
2018-Feb-15 23:00N 37°46' W 122°22'4 7.1
2018-Feb-15 22:30N 37°49' W 122°25'4 7.9
2018-Feb-15 22:00N 37°49' W 122°30'510.1
2018-Feb-15 21:30N 37°47' W 122°35'5 9.9
2018-Feb-15 21:00N 37°44' W 122°41'4 7.2
2018-Feb-15 20:30N 37°40' W 122°40'4 7.8
2018-Feb-15 20:00N 37°36' W 122°40'4 8.4
2018-Feb-15 19:30N 37°32' W 122°40'4 8.5
2018-Feb-15 19:00N 37°28' W 122°40'4 8.6
2018-Feb-15 18:30N 37°24' W 122°40'4 8.7
2018-Feb-15 18:00N 37°19' W 122°40'4 8.7
2018-Feb-15 17:30N 37°15' W 122°40'4 8.6
2018-Feb-15 17:00N 37°11' W 122°40'4 7.7
2018-Feb-15 16:30N 37°07' W 122°40'3 5.9
2018-Feb-15 16:00N 37°04' W 122°40'611.6
2018-Feb-15 15:27N 36°58' W 122°39'13211.8
2018-Feb-15 04:16N 34°48' W 122°05'312.2
2018-Feb-15 04:00N 34°46' W 122°03'612.1
2018-Feb-15 03:30N 34°40' W 121°60'612.1
2018-Feb-15 03:00N 34°35' W 121°56'612.0
2018-Feb-15 02:30N 34°30' W 121°53'712.0
2018-Feb-15 01:54N 34°23' W 121°48'512.1
2018-Feb-15 01:29N 34°19' W 121°46'612.2
2018-Feb-15 01:00N 34°13' W 121°43'612.4
2018-Feb-15 00:30N 34°08' W 121°40'612.5
2018-Feb-15 00:00N 34°02' W 121°36'612.6
2018-Feb-14 23:30N 33°57' W 121°32'912.7
2018-Feb-14 22:48N 33°49' W 121°27'412.5
2018-Feb-14 22:30N 33°46' W 121°25'612.4
2018-Feb-14 22:00N 33°40' W 121°22'612.4
2018-Feb-14 21:30N 33°34' W 121°19'612.6
2018-Feb-14 21:00N 33°29' W 121°16'612.3
2018-Feb-14 20:30N 33°23' W 121°12'612.1
2018-Feb-14 20:00N 33°18' W 121°08'612.3
2018-Feb-14 19:30N 33°13' W 121°04'1212.5
2018-Feb-14 18:34N 33°04' W 120°55'212.3
2018-Feb-14 18:26N 33°03' W 120°54'512.4
2018-Feb-14 18:00N 32°58' W 120°51'612.3
2018-Feb-14 17:29N 32°53' W 120°46'  

Dump ship's entire track history